Time;durP1;ratioP1;P1;durP2;ratioP2;P2;SDS_P1;SDS_P2;PMS_P1;PMS_P2;Temp;Humidity;BMP_temperature;BMP_pressure;BME280_temperature;BME280_humidity;BME280_pressure;Samples;Min_cycle;Max_cycle;Signal;HPM_P1;HPM_P2
2021/04/11 21:02:44;;;;;;;;;;;;;;;;;;5056996;27;1462119;-75
2021/04/11 21:05:10;;;;;;;;;;;;;;;;;;5066942;28;19925;-74
2021/04/11 21:07:36;;;;;;;;;;;;;;;;;;5088087;28;19982;-75
2021/04/11 21:10:02;;;;;;;;;;;;;;;;;;5070534;28;21003;-75
2021/04/11 21:18:38;;;;;;;;;;;;;;;;;;5073436;27;20536;-75
2021/04/11 21:21:06;;;;;;;;;;;;;;;;;;5063555;28;19919;-74
2021/04/11 21:23:32;;;;;;;;;;;;;;;;;;5053007;28;19913;-76
2021/04/11 21:25:58;;;;;;;;;;;;;;;;;;5054161;28;20487;-75
2021/04/11 21:28:24;;;;;;;;;;;;;;;;;;5052912;28;22143;-75
2021/04/11 21:30:50;;;;;;;;;;;;;;;;;;5050259;27;86695;-76
2021/04/11 21:33:16;;;;;;;;;;;;;;;;;;5054723;28;20003;-75
2021/04/11 21:35:42;;;;;;;;;;;;;;;;;;5052151;28;19982;-74
2021/04/11 21:38:08;;;;;;;;;;;;;;;;;;5063567;28;19927;-75
2021/04/11 21:40:34;;;;;;;;;;;;;;;;;;5058216;28;19920;-75
2021/04/11 21:43:00;;;;;;;;;;;;;;;;;;5055157;28;19912;-75
2021/04/11 21:47:15;;;;;;;;;;;;;;;;;;5054346;27;19925;-73
2021/04/11 21:49:41;;;;;;;;;;;;;;;;;;5055984;28;19919;-74
2021/04/11 21:52:07;;;;;;;;;;;;;;;;;;5055745;28;20418;-74
2021/04/11 21:54:33;;;;;;;;;;;;;;;;;;5052387;28;19913;-73
2021/04/11 21:56:59;;;;;;;;;;;;;;;;;;5052092;28;19909;-74
2021/04/11 21:59:25;;;;;;;;;;;;;;;;;;5053752;28;19948;-74
2021/04/11 22:01:51;;;;;;;;;;;;;;;;;;5052206;28;19982;-74
2021/04/11 22:04:17;;;;;;;;;;;;;;;;;;5055204;28;19974;-74
2021/04/11 22:06:43;;;;;;;;;;;;;;;;;;5058268;28;19970;-75
2021/04/11 22:09:09;;;;;;;;;;;;;;;;;;5056213;28;19921;-74
2021/04/11 22:11:35;;;;;;;;;;;;;;;;;;5060367;28;20441;-75
2021/04/11 22:14:01;;;;;;;;;;;;;;;;;;5059912;28;19955;-75
2021/04/11 22:16:27;;;;;;;;;;;;;;;;;;5058964;28;19923;-75
2021/04/11 22:18:53;;;;;;;;;;;;;;;;;;5050349;28;19917;-76
2021/04/11 22:21:18;;;;;;;;;;;;;;;;;;5057450;28;20445;-75
2021/04/11 22:23:44;;;;;;;;;;;;;;;;;;5057779;28;19929;-75
2021/04/11 22:26:10;;;;;;;;;;;;;;;;;;5062256;28;19917;-75
2021/04/11 22:28:36;;;;;;;;;;;;;;;;;;5061998;28;20407;-75
2021/04/11 22:31:02;;;;;;;;;;;;;;;;;;5062422;28;19926;-74
2021/04/11 22:33:28;;;;;;;;;;;;;;;;;;5064199;28;19955;-75
2021/04/11 22:35:54;;;;;;;;;;;;;;;;;;5063158;28;20424;-74
2021/04/11 22:38:20;;;;;;;;;;;;;;;;;;5063932;28;19913;-75
2021/04/11 22:40:46;;;;;;;;;;;;;;;;;;5057178;28;19921;-76
2021/04/11 22:43:12;;;;;;;;;;;;;;;;;;5059095;28;20429;-76
2021/04/11 22:45:38;;;;;;;;;;;;;;;;;;5059312;28;19925;-74
2021/04/11 22:48:03;;;;;;;;;;;;;;;;;;5060643;28;20419;-75
2021/04/11 22:50:29;;;;;;;;;;;;;;;;;;5066283;28;19913;-75
2021/04/11 22:52:55;;;;;;;;;;;;;;;;;;5058367;28;20106;-74
2021/04/11 22:55:21;;;;;;;;;;;;;;;;;;5064204;28;19919;-75
2021/04/11 22:57:47;;;;;;;;;;;;;;;;;;5054080;28;19921;-74
2021/04/11 23:00:13;;;;;;;;;;;;;;;;;;5051253;28;20379;-75
2021/04/11 23:02:39;;;;;;;;;;;;;;;;;;5026493;28;20011;-74
2021/04/11 23:05:05;;;;;;;;;;;;;;;;;;5042303;28;19933;-74
2021/04/11 23:07:31;;;;;;;;;;;;;;;;;;5028719;28;19913;-74
2021/04/11 23:09:57;;;;;;;;;;;;;;;;;;5026403;28;20319;-74
2021/04/11 23:12:23;;;;;;;;;;;;;;;;;;5041378;28;19948;-74
2021/04/11 23:14:49;;;;;;;;;;;;;;;;;;5042535;28;19921;-75
2021/04/11 23:17:14;;;;;;;;;;;;;;;;;;5045118;28;20356;-75
2021/04/11 23:19:40;;;;;;;;;;;;;;;;;;5029790;28;19967;-76
2021/04/11 23:22:06;;;;;;;;;;;;;;;;;;5024988;28;19915;-75
2021/04/11 23:24:32;;;;;;;;;;;;;;;;;;5028920;28;20036;-75
2021/04/11 23:26:58;;;;;;;;;;;;;;;;;;5029056;28;19927;-75
2021/04/11 23:29:24;;;;;;;;;;;;;;;;;;5028894;28;19921;-75
2021/04/11 23:31:50;;;;;;;;;;;;;;;;;;5035305;28;19939;-73
2021/04/11 23:34:16;;;;;;;;;;;;;;;;;;5031104;28;19963;-74
2021/04/11 23:36:41;;;;;;;;;;;;;;;;;;5045668;28;19913;-75
2021/04/11 23:39:07;;;;;;;;;;;;;;;;;;5039718;28;20000;-75
2021/04/11 23:41:33;;;;;;;;;;;;;;;;;;5031608;28;19956;-74
2021/04/11 23:43:59;;;;;;;;;;;;;;;;;;5029154;28;19943;-74
2021/04/11 23:46:25;;;;;;;;;;;;;;;;;;5041053;28;19917;-75
2021/04/11 23:48:51;;;;;;;;;;;;;;;;;;5034862;28;19913;-74
2021/04/11 23:51:17;;;;;;;;;;;;;;;;;;5030160;28;19983;-75
2021/04/11 23:53:43;;;;;;;;;;;;;;;;;;5032358;28;19921;-75
2021/04/11 23:56:09;;;;;;;;;;;;;;;;;;5027591;28;19943;-74
2021/04/11 23:58:35;;;;;;;;;;;;;;;;;;5029495;28;19995;-75
